Latest Weather Observations for Camden

IDN60801

Issued at 12:35 pm EST Wednesday 30 July 2014 (issued every 30 minutes, with the page automatically refreshed every 10 minutes)

About weather observations | Map of weather stations | Latest weather observations for NSW | Other Formats
Station Details ID: 068192 Name: CAMDEN AIRPORT AWS Lat: -34.04 Lon: 150.69 Height: 73.9 m
Data from the previous 72 hours. | See also: Recent months at Camden
Date/Time
EST
Temp
°C
App
Temp
°C
Dew
Point
Rel
Hum
%
Delta-T
°C
Wind Press
QNH
hPa
Press
MSL
hPa
Rain
since 9 am
mm
Dir
 
Spd
km/h
Gust
km/h
Spd
kts
Gust
kts
30/12:30pm 22.5 16.6 5.9 34 8.4 W 26 37 14 20 1015.5 - 0.0
30/12:00pm 22.6 17.4 5.5 33 8.6 W 22 30 12 16 1015.9 1016.0 0.0
30/11:30am 22.3 16.8 5.7 34 8.4 WNW 24 35 13 19 1016.5 - 0.0
30/11:00am 21.9 17.2 6.2 36 8.0 WNW 20 30 11 16 1016.9 1017.0 0.0
30/10:38am 21.0 14.0 5.8 37 7.6 W 32 37 17 20 1017.0 - 0.0
30/10:30am 20.5 17.5 6.1 39 7.2 W 11 17 6 9 1017.2 - 0.0
30/10:00am 20.0 17.9 5.6 39 7.1 NNW 6 11 3 6 1017.7 1017.8 0.0
30/09:30am 19.3 16.3 6.1 42 6.6 N 11 15 6 8 1017.9 - 0.0
30/09:00am 16.5 14.3 8.0 57 4.3 N 9 13 5 7 1018.0 1018.1 0.0
30/08:30am 12.1 8.7 5.9 66 2.9 NNW 13 15 7 8 1018.0 - 0.0
30/08:00am 8.1 5.3 5.0 81 1.4 NNW 9 13 5 7 1018.2 1018.3 0.0
30/07:30am 5.5 2.5 4.0 90 0.6 N 9 11 5 6 1018.3 - 0.0
30/07:00am 3.9 1.0 2.7 92 0.5 N 7 9 4 5 1018.3 1018.4 0.0
30/06:30am 4.5 3.0 2.8 89 0.7 CALM 0 0 0 0 1018.1 - 0.0
30/06:00am 5.2 2.9 2.7 84 1.0 N 4 7 2 4 1017.7 1017.8 0.0
30/05:30am 5.0 2.7 2.9 86 0.9 N 4 9 2 5 1017.4 - 0.0
30/05:00am 5.6 3.7 2.9 83 1.1 NW 2 9 1 5 1016.9 1017.0 0.0
30/04:30am 5.6 3.3 2.9 83 1.1 NNW 4 9 2 5 1016.6 - 0.0
30/04:00am 5.8 3.2 3.0 82 1.2 SE 6 11 3 6 1016.5 1016.6 0.0
30/03:30am 4.9 2.6 2.8 86 0.9 NW 4 11 2 6 1016.2 - 0.0
30/03:00am 5.8 4.0 3.3 84 1.0 WNW 2 11 1 6 1016.2 1016.3 0.0
30/02:30am 5.5 2.6 2.8 83 1.1 ESE 7 11 4 6 1015.9 - 0.0
30/02:00am 4.9 2.2 2.4 84 1.0 ENE 6 9 3 5 1015.7 1015.8 0.0
30/01:30am 5.7 3.5 3.2 84 1.0 NE 4 9 2 5 1015.5 - 0.0
30/01:00am 5.8 3.6 3.1 83 1.1 N 4 13 2 7 1015.6 1015.7 0.0
30/12:30am 6.1 3.4 2.4 77 1.5 SSW 6 11 3 6 1015.6 - 0.0
30/12:00am 7.2 4.4 2.3 71 2.0 ESE 6 11 3 6 1015.3 1015.5 0.0
 
Date/Time
EST
Temp
°C
App
Temp
°C
Dew
Point
Rel
Hum
%
Delta-T
°C
Wind Press
QNH
hPa
Press
MSL
hPa
Rain
since 9 am
mm
Dir
 
Spd
km/h
Gust
km/h
Spd
kts
Gust
kts
29/11:30pm 8.7 5.1 2.7 66 2.5 S 11 17 6 9 1015.5 - 0.0
29/11:00pm 9.9 7.0 2.7 61 3.1 S 7 9 4 5 1015.5 1015.6 0.0
29/10:30pm 11.3 8.1 3.1 57 3.6 NNW 9 11 5 6 1015.2 - 0.0
29/10:00pm 11.2 7.6 2.8 56 3.7 NNW 11 13 6 7 1015.1 1015.2 0.0
29/09:30pm 11.9 8.7 2.9 54 4.0 N 9 13 5 7 1015.2 - 0.0
29/09:00pm 12.4 9.1 2.6 51 4.3 N 9 15 5 8 1015.2 1015.3 0.0
29/08:30pm 12.3 9.0 2.5 51 4.3 N 9 13 5 7 1015.2 - 0.0
29/08:00pm 12.6 9.3 2.7 51 4.3 N 9 11 5 6 1015.3 1015.5 0.0
29/07:30pm 12.3 8.6 2.5 51 4.3 N 11 11 6 6 1015.5 - 0.0
29/07:00pm 14.9 11.9 0.7 38 6.1 N 6 11 3 6 1015.6 1015.7 0.0
29/06:30pm 16.4 12.8 0.9 35 6.8 NW 9 13 5 7 1015.3 - 0.0
29/06:00pm 16.3 12.4 1.2 36 6.6 NNW 11 15 6 8 1015.1 1015.2 0.0
29/05:30pm 17.5 13.5 0.6 32 7.4 WNW 11 13 6 7 1014.7 - 0.0
29/05:00pm 20.0 14.8 -0.1 26 8.9 WNW 17 24 9 13 1014.2 1014.3 0.0
29/04:30pm 21.5 16.3 0.1 24 9.6 WNW 17 26 9 14 1013.8 - 0.0
29/04:00pm 22.5 17.3 0.4 23 10.1 W 17 20 9 11 1013.6 1013.7 0.0
29/03:30pm 22.7 17.0 0.5 23 10.2 WNW 20 28 11 15 1013.3 - 0.0
29/03:00pm 23.3 17.6 0.4 22 10.5 NW 20 32 11 17 1012.6 1012.7 0.0
29/02:30pm 23.6 18.7 1.9 24 10.3 NW 17 26 9 14 1012.7 - 0.0
29/02:00pm 23.2 18.9 0.9 23 10.3 NNW 13 20 7 11 1013.0 1013.1 0.0
29/01:30pm 22.9 20.0 2.4 26 9.7 W 7 9 4 5 1013.0 - 0.0
29/01:00pm 22.7 17.5 2.2 26 9.7 N 19 26 10 14 1013.7 1013.8 0.0
29/12:30pm 20.6 16.1 4.2 34 7.9 N 17 20 9 11 1014.0 - 0.0
29/12:00pm 20.3 14.6 3.1 32 8.1 N 22 32 12 17 1014.8 1014.9 0.0
29/11:30am 19.0 13.8 3.6 36 7.3 N 20 28 11 15 1015.2 - 0.0
29/11:00am 17.9 14.4 5.5 44 6.0 N 13 28 7 15 1016.2 1016.3 0.0
29/10:58am 17.1 14.7 7.2 52 5.0 N 9 20 5 11 1016.3 - 0.0
29/10:30am 12.1 10.4 7.4 73 2.3 S 6 9 3 5 1017.1 - 0.0
29/10:00am 9.8 8.0 7.2 84 1.2 S 6 7 3 4 1017.3 1017.4 0.0
29/09:30am 8.5 7.8 7.1 91 0.7 CALM 0 0 0 0 1017.8 - 0.0
29/09:00am 7.3 6.6 7.0 98 0.1 CALM 0 0 0 0 1017.9 1018.0 0.0
29/08:30am 6.0 5.1 5.9 99 0.0 CALM 0 0 0 0 1018.1 - 0.0
29/08:00am 5.1 4.0 5.0 99 0.0 CALM 0 0 0 0 1017.9 1018.0 0.0
29/07:30am 4.7 3.5 4.6 99 0.0 CALM 0 0 0 0 1018.0 - 0.0
29/07:00am 4.7 3.5 4.4 98 0.1 CALM 0 0 0 0 1018.1 1018.2 0.0
29/06:30am 4.7 3.5 4.4 98 0.1 CALM 0 0 0 0 1018.1 - 0.0
29/06:00am 4.7 3.5 4.4 98 0.1 CALM 0 0 0 0 1017.9 1018.0 0.0
29/05:30am 5.0 3.8 4.6 97 0.2 CALM 0 0 0 0 1017.7 - 0.0
29/05:00am 5.3 4.2 5.0 98 0.1 CALM 0 0 0 0 1017.7 1017.8 0.0
29/04:30am 5.2 4.0 4.6 96 0.3 CALM 0 0 0 0 1017.6 - 0.0
29/04:00am 5.4 4.2 4.8 96 0.3 CALM 0 6 0 3 1017.5 1017.6 0.0
29/03:30am 5.9 3.7 5.3 96 0.3 N 6 7 3 4 1017.5 - 0.0
29/03:00am 6.1 4.0 5.7 97 0.2 N 6 6 3 3 1017.5 1017.6 0.0
29/02:30am 5.9 3.5 5.3 96 0.3 NNW 7 7 4 4 1017.8 - 0.0
29/02:00am 6.7 5.4 6.1 96 0.3 N 2 7 1 4 1018.0 1018.1 0.0
29/01:30am 6.4 5.4 5.5 94 0.4 CALM 0 0 0 0 1018.1 - 0.0
29/01:00am 6.5 5.5 5.5 93 0.4 CALM 0 0 0 0 1018.1 1018.2 0.0
29/12:30am 7.1 6.1 5.6 90 0.7 CALM 0 0 0 0 1018.2 - 0.0
29/12:00am 7.4 5.3 5.7 89 0.8 SSE 6 9 3 5 1018.3 1018.4 0.0
 
Date/Time
EST
Temp
°C
App
Temp
°C
Dew
Point
Rel
Hum
%
Delta-T
°C
Wind Press
QNH
hPa
Press
MSL
hPa
Rain
since 9 am
mm
Dir
 
Spd
km/h
Gust
km/h
Spd
kts
Gust
kts
28/11:30pm 7.9 5.7 5.5 85 1.1 SW 6 7 3 4 1018.6 - 0.0
28/11:00pm 8.6 7.8 6.4 86 1.0 CALM 0 0 0 0 1018.8 1018.9 0.0
28/10:30pm 7.7 5.5 6.3 91 0.6 N 7 9 4 5 1018.8 - 0.0
28/10:00pm 8.0 7.1 6.0 87 0.9 CALM 0 0 0 0 1019.2 1019.3 0.0
28/09:30pm 9.0 8.1 5.9 81 1.4 CALM 0 0 0 0 1019.3 - 0.0
28/09:00pm 8.8 7.1 5.7 81 1.4 N 4 7 2 4 1019.2 1019.3 0.0
28/08:30pm 9.7 7.7 6.1 78 1.7 N 6 7 3 4 1019.2 - 0.0
28/08:00pm 9.2 7.2 6.3 82 1.3 N 6 9 3 5 1019.4 1019.5 0.0
28/07:30pm 9.9 9.0 6.1 77 1.8 CALM 0 7 0 4 1019.2 - 0.0
28/07:00pm 10.3 9.3 5.7 73 2.1 CALM 0 0 0 0 1019.0 1019.1 0.0
28/06:30pm 11.5 10.0 5.2 65 2.9 NW 2 7 1 4 1019.0 - 0.0
28/06:00pm 11.6 9.3 5.0 64 3.0 N 6 7 3 4 1018.8 1018.9 0.0
28/05:30pm 13.0 10.9 5.7 61 3.4 NNW 6 7 3 4 1018.5 - 0.0
28/05:00pm 14.2 12.1 5.8 57 4.0 N 6 7 3 4 1018.3 1018.4 0.0
28/04:30pm 14.9 12.2 5.4 53 4.5 N 9 11 5 6 1017.9 - 0.0
28/04:00pm 15.8 13.4 5.1 49 5.1 N 7 11 4 6 1018.0 1018.1 0.0
28/03:30pm 16.5 13.0 5.5 48 5.3 N 13 19 7 10 1017.9 - 0.0
28/03:00pm 17.7 13.1 3.6 39 6.6 WNW 17 22 9 12 1017.9 1018.0 0.0
28/02:30pm 17.3 14.0 4.6 43 6.0 WNW 11 17 6 9 1018.0 - 0.0
28/02:00pm 17.3 13.2 4.6 43 6.0 W 15 22 8 12 1018.1 1018.2 0.0
28/01:30pm 17.4 11.5 3.7 40 6.4 W 24 28 13 15 1018.1 - 0.0
28/01:00pm 17.9 13.7 3.8 39 6.6 WSW 15 22 8 12 1018.7 1018.8 0.0
28/12:30pm 17.9 13.8 4.1 40 6.5 W 15 20 8 11 1019.3 - 0.0
28/12:00pm 16.3 10.7 3.7 43 5.8 W 22 30 12 16 1019.9 1020.0 0.0
28/11:30am 16.2 12.4 3.9 44 5.7 W 13 24 7 13 1020.3 - 0.0
28/11:00am 14.7 12.1 4.1 49 4.9 NW 7 11 4 6 1020.6 1020.7 0.0
28/10:30am 14.1 11.9 6.0 58 3.9 NNW 7 9 4 5 1021.0 - 0.0
28/10:00am 11.8 11.0 6.3 69 2.6 CALM 0 0 0 0 1021.2 1021.3 0.0
28/09:30am 10.3 9.3 5.7 73 2.1 CALM 0 0 0 0 1021.3 - 0.0
28/09:00am 8.9 7.9 5.8 81 1.4 CALM 0 0 0 0 1021.4 1021.5 0.0
28/08:30am 7.5 6.5 5.8 89 0.8 CALM 0 2 0 1 1021.4 - 0.0
28/08:00am 7.0 4.8 5.3 89 0.8 N 6 7 3 4 1021.5 1021.6 0.0
28/07:30am 5.3 2.9 4.3 93 0.4 N 6 9 3 5 1021.6 - 0.0
28/07:00am 5.5 4.2 4.0 90 0.6 CALM 0 0 0 0 1021.7 1021.8 0.0
28/06:30am 4.9 3.1 3.7 92 0.5 NNW 2 9 1 5 1021.6 - 0.0
28/06:00am 4.8 2.3 3.5 91 0.5 N 6 9 3 5 1020.9 1021.0 0.0
28/05:30am 6.5 4.2 4.8 89 0.7 SSW 6 7 3 4 1020.6 - 0.0
28/05:00am 4.5 3.1 3.3 92 0.5 CALM 0 0 0 0 1020.5 1020.6 0.0
28/04:30am 4.3 2.2 3.7 96 0.2 N 4 7 2 4 1020.9 - 0.0
28/04:00am 4.1 1.4 3.5 96 0.2 N 7 9 4 5 1021.1 1021.2 0.0
28/03:30am 3.9 2.4 3.0 94 0.4 CALM 0 0 0 0 1021.2 - 0.0
28/03:00am 4.6 2.3 2.6 87 0.8 W 4 13 2 7 1021.1 1021.2 0.0
28/02:30am 3.0 1.4 2.3 95 0.3 CALM 0 6 0 3 1021.9 - 0.0
28/02:00am 3.1 1.4 2.1 93 0.4 CALM 0 6 0 3 1022.0 1022.1 0.0
28/01:30am 3.5 0.8 2.5 93 0.4 NNW 6 7 3 4 1021.7 - 0.0
28/01:00am 4.1 2.6 2.8 91 0.5 CALM 0 6 0 3 1021.9 1022.0 0.0
28/12:30am 4.1 1.4 2.6 90 0.6 S 6 7 3 4 1022.3 - 0.0
28/12:00am 5.0 2.2 3.3 89 0.7 SE 7 9 4 5 1021.8 1021.9 0.0
 
Date/Time
EST
Temp
°C
App
Temp
°C
Dew
Point
Rel
Hum
%
Delta-T
°C
Wind Press
QNH
hPa
Press
MSL
hPa
Rain
since 9 am
mm
Dir
 
Spd
km/h
Gust
km/h
Spd
kts
Gust
kts
27/11:30pm 4.0 1.2 2.2 88 0.7 SW 6 13 3 7 1022.1 - 0.0
27/11:00pm 7.1 5.9 4.8 85 1.0 CALM 0 0 0 0 1022.1 1022.2 0.0
27/10:30pm 5.6 4.1 2.9 83 1.1 CALM 0 0 0 0 1022.5 - 0.0
27/10:00pm 7.7 5.1 4.3 79 1.5 N 7 7 4 4 1022.5 1022.6 0.0
27/09:30pm 7.5 5.5 4.3 80 1.4 N 4 9 2 5 1022.9 - 0.0
27/09:00pm 7.8 5.6 3.1 72 2.0 NNW 4 9 2 5 1023.1 1023.2 0.0
27/08:30pm 12.1 10.8 4.1 58 3.6 CALM 0 0 0 0 1023.3 - 0.0
27/08:00pm 11.7 8.2 3.5 57 3.6 SW 11 17 6 9 1023.3 1023.4 0.0
27/07:30pm 12.4 9.9 3.9 56 3.8 SSW 6 9 3 5 1023.2 - 0.0
27/07:00pm 12.8 11.5 4.3 56 3.9 CALM 0 6 0 3 1023.3 1023.4 0.0
27/06:30pm 12.3 9.7 3.3 54 4.0 SSW 6 11 3 6 1022.8 - 0.0
27/06:00pm 13.8 10.0 3.9 51 4.5 SSW 13 17 7 9 1022.2 1022.3 0.0
27/05:30pm 14.9 11.1 3.7 47 5.1 SW 13 17 7 9 1022.3 - 0.0
27/05:00pm 16.5 11.9 3.6 42 6.0 SW 17 24 9 13 1021.6 1021.7 0.0
27/04:30pm 18.2 14.0 3.7 38 6.8 SW 15 19 8 10 1021.3 - 0.0
27/04:00pm 18.9 14.6 3.1 35 7.4 SW 15 20 8 11 1021.2 1021.3 0.0
27/03:30pm 19.2 14.2 3.4 35 7.4 W 19 24 10 13 1021.2 - 0.0
27/03:00pm 19.5 16.0 3.6 35 7.5 SW 11 20 6 11 1021.2 1021.3 0.0
27/02:30pm 19.0 15.4 3.2 35 7.4 SW 11 17 6 9 1021.2 - 0.0
27/02:00pm 19.4 14.8 3.6 35 7.5 WSW 17 26 9 14 1021.6 1021.7 0.0
27/01:30pm 18.9 14.3 3.9 37 7.1 SW 17 24 9 13 1021.8 - 0.0
27/01:00pm 19.1 14.7 4.5 38 7.0 W 17 24 9 13 1022.1 1022.2 0.0

Other Formats:

Comma delimited format used in spreadsheet applications
http://www.bom.gov.au/fwo/IDN60801/IDN60801.94755.axf

JavaScript Object Notation format (JSON) in row-major order
http://www.bom.gov.au/fwo/IDN60801/IDN60801.94755.json